sensor_id;sensor_type;location;lat;lon;timestamp;P1;durP1;ratioP1;P2;durP2;ratioP2
42700;SDS011;28316;49.504;8.526;2023-04-16T00:00:15;10.27;;;3.75;;
42700;SDS011;28316;49.504;8.526;2023-04-16T00:02:41;7.70;;;3.97;;
42700;SDS011;28316;49.504;8.526;2023-04-16T00:05:07;9.10;;;4.15;;
42700;SDS011;28316;49.504;8.526;2023-04-16T00:07:33;7.38;;;3.63;;
42700;SDS011;28316;49.504;8.526;2023-04-16T00:09:59;6.93;;;3.03;;
42700;SDS011;28316;49.504;8.526;2023-04-16T00:12:24;7.47;;;4.30;;
42700;SDS011;28316;49.504;8.526;2023-04-16T00:14:50;11.30;;;4.10;;
42700;SDS011;28316;49.504;8.526;2023-04-16T00:17:16;7.07;;;3.58;;
42700;SDS011;28316;49.504;8.526;2023-04-16T00:19:42;10.07;;;4.80;;
42700;SDS011;28316;49.504;8.526;2023-04-16T00:22:08;7.80;;;4.30;;
42700;SDS011;28316;49.504;8.526;2023-04-16T00:24:33;9.45;;;4.10;;
42700;SDS011;28316;49.504;8.526;2023-04-16T00:26:59;9.90;;;4.13;;
42700;SDS011;28316;49.504;8.526;2023-04-16T00:29:25;8.70;;;4.00;;
42700;SDS011;28316;49.504;8.526;2023-04-16T00:31:52;5.68;;;3.30;;
42700;SDS011;28316;49.504;8.526;2023-04-16T00:34:18;13.20;;;4.25;;
42700;SDS011;28316;49.504;8.526;2023-04-16T00:36:44;7.28;;;4.03;;
42700;SDS011;28316;49.504;8.526;2023-04-16T00:39:10;8.95;;;4.65;;
42700;SDS011;28316;49.504;8.526;2023-04-16T00:41:36;10.13;;;4.00;;
42700;SDS011;28316;49.504;8.526;2023-04-16T00:44:02;6.88;;;4.35;;
42700;SDS011;28316;49.504;8.526;2023-04-16T00:46:28;8.40;;;3.92;;
42700;SDS011;28316;49.504;8.526;2023-04-16T00:48:54;9.68;;;4.13;;
42700;SDS011;28316;49.504;8.526;2023-04-16T00:51:20;9.35;;;5.00;;
42700;SDS011;28316;49.504;8.526;2023-04-16T00:53:46;8.70;;;4.05;;
42700;SDS011;28316;49.504;8.526;2023-04-16T00:56:12;11.85;;;4.68;;
42700;SDS011;28316;49.504;8.526;2023-04-16T00:58:38;7.90;;;4.38;;
42700;SDS011;28316;49.504;8.526;2023-04-16T01:01:04;7.40;;;3.88;;
42700;SDS011;28316;49.504;8.526;2023-04-16T01:03:43;8.50;;;5.03;;
42700;SDS011;28316;49.504;8.526;2023-04-16T01:06:11;9.68;;;4.90;;
42700;SDS011;28316;49.504;8.526;2023-04-16T01:08:38;11.63;;;4.68;;
42700;SDS011;28316;49.504;8.526;2023-04-16T01:11:04;9.93;;;4.40;;
42700;SDS011;28316;49.504;8.526;2023-04-16T01:13:31;8.00;;;3.90;;
42700;SDS011;28316;49.504;8.526;2023-04-16T01:15:57;10.02;;;4.65;;
42700;SDS011;28316;49.504;8.526;2023-04-16T01:18:25;10.52;;;5.10;;
42700;SDS011;28316;49.504;8.526;2023-04-16T01:20:51;11.10;;;4.47;;
42700;SDS011;28316;49.504;8.526;2023-04-16T01:23:17;7.65;;;3.47;;
42700;SDS011;28316;49.504;8.526;2023-04-16T01:25:44;10.50;;;4.85;;
42700;SDS011;28316;49.504;8.526;2023-04-16T01:28:10;8.32;;;4.25;;
42700;SDS011;28316;49.504;8.526;2023-04-16T01:30:36;9.23;;;4.88;;
42700;SDS011;28316;49.504;8.526;2023-04-16T01:33:02;8.02;;;3.95;;
42700;SDS011;28316;49.504;8.526;2023-04-16T01:35:28;8.23;;;4.10;;
42700;SDS011;28316;49.504;8.526;2023-04-16T01:37:54;10.98;;;4.90;;
42700;SDS011;28316;49.504;8.526;2023-04-16T01:40:20;8.30;;;4.20;;
42700;SDS011;28316;49.504;8.526;2023-04-16T01:42:46;9.40;;;4.10;;
42700;SDS011;28316;49.504;8.526;2023-04-16T01:45:11;7.53;;;4.65;;
42700;SDS011;28316;49.504;8.526;2023-04-16T01:47:37;8.27;;;4.03;;
42700;SDS011;28316;49.504;8.526;2023-04-16T01:50:04;12.77;;;4.70;;
42700;SDS011;28316;49.504;8.526;2023-04-16T01:52:30;8.25;;;3.83;;
42700;SDS011;28316;49.504;8.526;2023-04-16T01:54:56;11.40;;;4.47;;
42700;SDS011;28316;49.504;8.526;2023-04-16T01:57:22;10.95;;;4.82;;
42700;SDS011;28316;49.504;8.526;2023-04-16T01:59:47;9.00;;;4.82;;
42700;SDS011;28316;49.504;8.526;2023-04-16T02:02:14;10.18;;;4.13;;
42700;SDS011;28316;49.504;8.526;2023-04-16T02:04:41;10.40;;;5.18;;
42700;SDS011;28316;49.504;8.526;2023-04-16T02:07:09;12.55;;;5.75;;
42700;SDS011;28316;49.504;8.526;2023-04-16T02:09:39;13.15;;;5.82;;
42700;SDS011;28316;49.504;8.526;2023-04-16T02:12:05;9.82;;;4.80;;
42700;SDS011;28316;49.504;8.526;2023-04-16T02:14:31;9.40;;;4.60;;
42700;SDS011;28316;49.504;8.526;2023-04-16T02:16:58;12.75;;;5.40;;
42700;SDS011;28316;49.504;8.526;2023-04-16T02:19:24;10.20;;;5.80;;
42700;SDS011;28316;49.504;8.526;2023-04-16T02:21:51;9.70;;;4.60;;
42700;SDS011;28316;49.504;8.526;2023-04-16T02:24:17;12.10;;;4.60;;
42700;SDS011;28316;49.504;8.526;2023-04-16T02:26:44;7.10;;;3.95;;
42700;SDS011;28316;49.504;8.526;2023-04-16T02:29:10;9.18;;;4.82;;
42700;SDS011;28316;49.504;8.526;2023-04-16T02:31:36;9.63;;;5.32;;
42700;SDS011;28316;49.504;8.526;2023-04-16T02:34:02;16.50;;;5.75;;
42700;SDS011;28316;49.504;8.526;2023-04-16T02:36:29;10.30;;;4.85;;
42700;SDS011;28316;49.504;8.526;2023-04-16T02:38:56;9.30;;;5.47;;
42700;SDS011;28316;49.504;8.526;2023-04-16T02:41:22;12.05;;;5.53;;
42700;SDS011;28316;49.504;8.526;2023-04-16T02:43:48;12.55;;;5.68;;
42700;SDS011;28316;49.504;8.526;2023-04-16T02:46:14;10.63;;;5.40;;
42700;SDS011;28316;49.504;8.526;2023-04-16T02:48:40;14.48;;;6.05;;
42700;SDS011;28316;49.504;8.526;2023-04-16T02:51:06;10.07;;;5.82;;
42700;SDS011;28316;49.504;8.526;2023-04-16T02:53:31;12.30;;;5.50;;
42700;SDS011;28316;49.504;8.526;2023-04-16T02:55:57;9.88;;;5.25;;
42700;SDS011;28316;49.504;8.526;2023-04-16T02:58:23;10.02;;;5.28;;
42700;SDS011;28316;49.504;8.526;2023-04-16T03:00:51;11.05;;;5.85;;
42700;SDS011;28316;49.504;8.526;2023-04-16T03:03:18;12.43;;;5.88;;
42700;SDS011;28316;49.504;8.526;2023-04-16T03:05:45;11.18;;;5.20;;
42700;SDS011;28316;49.504;8.526;2023-04-16T03:08:12;14.52;;;5.88;;
42700;SDS011;28316;49.504;8.526;2023-04-16T03:10:37;13.77;;;6.47;;
42700;SDS011;28316;49.504;8.526;2023-04-16T03:13:04;12.88;;;5.50;;
42700;SDS011;28316;49.504;8.526;2023-04-16T03:15:30;10.70;;;4.85;;
42700;SDS011;28316;49.504;8.526;2023-04-16T03:17:56;13.57;;;6.18;;
42700;SDS011;28316;49.504;8.526;2023-04-16T03:20:23;15.52;;;6.00;;
42700;SDS011;28316;49.504;8.526;2023-04-16T03:22:49;11.07;;;4.68;;
42700;SDS011;28316;49.504;8.526;2023-04-16T03:25:16;14.38;;;6.40;;
42700;SDS011;28316;49.504;8.526;2023-04-16T03:27:43;10.07;;;5.35;;
42700;SDS011;28316;49.504;8.526;2023-04-16T03:30:12;13.20;;;6.32;;
42700;SDS011;28316;49.504;8.526;2023-04-16T03:32:38;13.10;;;4.93;;
42700;SDS011;28316;49.504;8.526;2023-04-16T03:35:05;9.68;;;4.78;;
42700;SDS011;28316;49.504;8.526;2023-04-16T03:37:32;12.13;;;5.55;;
42700;SDS011;28316;49.504;8.526;2023-04-16T03:39:58;10.95;;;5.07;;
42700;SDS011;28316;49.504;8.526;2023-04-16T03:42:24;13.18;;;5.70;;
42700;SDS011;28316;49.504;8.526;2023-04-16T03:44:51;14.15;;;5.63;;
42700;SDS011;28316;49.504;8.526;2023-04-16T03:47:18;11.43;;;5.20;;
42700;SDS011;28316;49.504;8.526;2023-04-16T03:49:44;12.40;;;6.07;;
42700;SDS011;28316;49.504;8.526;2023-04-16T03:52:10;11.73;;;6.05;;
42700;SDS011;28316;49.504;8.526;2023-04-16T03:54:36;11.18;;;5.18;;
42700;SDS011;28316;49.504;8.526;2023-04-16T03:57:01;14.25;;;5.32;;
42700;SDS011;28316;49.504;8.526;2023-04-16T03:59:27;11.02;;;5.38;;
42700;SDS011;28316;49.504;8.526;2023-04-16T04:01:53;21.55;;;8.25;;
42700;SDS011;28316;49.504;8.526;2023-04-16T04:04:18;12.98;;;5.22;;
42700;SDS011;28316;49.504;8.526;2023-04-16T04:06:45;9.75;;;4.57;;
42700;SDS011;28316;49.504;8.526;2023-04-16T04:09:11;10.07;;;4.80;;
42700;SDS011;28316;49.504;8.526;2023-04-16T04:11:39;14.70;;;5.60;;
42700;SDS011;28316;49.504;8.526;2023-04-16T04:14:04;11.75;;;5.35;;
42700;SDS011;28316;49.504;8.526;2023-04-16T04:16:30;13.07;;;6.93;;
42700;SDS011;28316;49.504;8.526;2023-04-16T04:18:56;12.77;;;5.63;;
42700;SDS011;28316;49.504;8.526;2023-04-16T04:21:24;10.07;;;5.38;;
42700;SDS011;28316;49.504;8.526;2023-04-16T04:23:53;9.90;;;5.10;;
42700;SDS011;28316;49.504;8.526;2023-04-16T04:26:19;12.98;;;5.57;;
42700;SDS011;28316;49.504;8.526;2023-04-16T04:28:45;13.85;;;5.13;;
42700;SDS011;28316;49.504;8.526;2023-04-16T04:31:11;10.40;;;5.05;;
42700;SDS011;28316;49.504;8.526;2023-04-16T04:33:38;12.98;;;6.05;;
42700;SDS011;28316;49.504;8.526;2023-04-16T04:36:04;14.63;;;5.53;;
42700;SDS011;28316;49.504;8.526;2023-04-16T04:38:30;7.40;;;3.75;;
42700;SDS011;28316;49.504;8.526;2023-04-16T04:40:56;12.88;;;5.28;;
42700;SDS011;28316;49.504;8.526;2023-04-16T04:43:22;8.43;;;3.72;;
42700;SDS011;28316;49.504;8.526;2023-04-16T04:45:48;12.88;;;5.15;;
42700;SDS011;28316;49.504;8.526;2023-04-16T04:48:13;8.55;;;4.35;;
42700;SDS011;28316;49.504;8.526;2023-04-16T04:50:40;9.15;;;5.20;;
42700;SDS011;28316;49.504;8.526;2023-04-16T04:53:06;12.40;;;4.35;;
42700;SDS011;28316;49.504;8.526;2023-04-16T04:55:36;10.20;;;5.10;;
42700;SDS011;28316;49.504;8.526;2023-04-16T04:58:03;9.90;;;4.05;;
42700;SDS011;28316;49.504;8.526;2023-04-16T05:00:33;9.77;;;4.45;;
42700;SDS011;28316;49.504;8.526;2023-04-16T05:03:04;7.88;;;3.63;;
42700;SDS011;28316;49.504;8.526;2023-04-16T05:05:35;10.48;;;4.35;;
42700;SDS011;28316;49.504;8.526;2023-04-16T05:08:01;11.43;;;4.85;;
42700;SDS011;28316;49.504;8.526;2023-04-16T05:10:26;11.70;;;5.57;;
42700;SDS011;28316;49.504;8.526;2023-04-16T05:12:52;10.93;;;4.47;;
42700;SDS011;28316;49.504;8.526;2023-04-16T05:15:18;10.00;;;4.68;;
42700;SDS011;28316;49.504;8.526;2023-04-16T05:17:43;9.15;;;4.38;;
42700;SDS011;28316;49.504;8.526;2023-04-16T05:20:09;7.50;;;4.43;;
42700;SDS011;28316;49.504;8.526;2023-04-16T05:22:35;9.18;;;4.47;;
42700;SDS011;28316;49.504;8.526;2023-04-16T05:25:01;12.05;;;3.97;;
42700;SDS011;28316;49.504;8.526;2023-04-16T05:27:27;11.20;;;4.30;;
42700;SDS011;28316;49.504;8.526;2023-04-16T05:29:53;11.55;;;4.22;;
42700;SDS011;28316;49.504;8.526;2023-04-16T05:32:19;8.43;;;3.60;;
42700;SDS011;28316;49.504;8.526;2023-04-16T05:34:45;7.70;;;3.72;;
42700;SDS011;28316;49.504;8.526;2023-04-16T05:37:11;9.65;;;3.30;;
42700;SDS011;28316;49.504;8.526;2023-04-16T05:39:36;6.80;;;2.78;;
42700;SDS011;28316;49.504;8.526;2023-04-16T05:42:02;5.95;;;3.05;;
42700;SDS011;28316;49.504;8.526;2023-04-16T05:44:28;9.82;;;3.70;;
42700;SDS011;28316;49.504;8.526;2023-04-16T05:46:54;9.65;;;3.90;;
42700;SDS011;28316;49.504;8.526;2023-04-16T05:49:19;9.10;;;3.80;;
42700;SDS011;28316;49.504;8.526;2023-04-16T05:51:46;8.40;;;3.75;;
42700;SDS011;28316;49.504;8.526;2023-04-16T05:54:15;7.22;;;3.22;;
42700;SDS011;28316;49.504;8.526;2023-04-16T05:56:40;6.32;;;3.25;;
42700;SDS011;28316;49.504;8.526;2023-04-16T05:59:06;12.88;;;3.30;;
42700;SDS011;28316;49.504;8.526;2023-04-16T06:01:32;5.68;;;3.42;;
42700;SDS011;28316;49.504;8.526;2023-04-16T06:03:58;8.55;;;3.38;;
42700;SDS011;28316;49.504;8.526;2023-04-16T06:06:23;10.23;;;3.85;;
42700;SDS011;28316;49.504;8.526;2023-04-16T06:08:51;11.43;;;4.43;;
42700;SDS011;28316;49.504;8.526;2023-04-16T06:11:17;7.43;;;3.50;;
42700;SDS011;28316;49.504;8.526;2023-04-16T06:13:43;9.23;;;3.97;;
42700;SDS011;28316;49.504;8.526;2023-04-16T06:16:09;7.78;;;3.83;;
42700;SDS011;28316;49.504;8.526;2023-04-16T06:18:34;10.25;;;3.67;;
42700;SDS011;28316;49.504;8.526;2023-04-16T06:21:00;7.43;;;3.55;;
42700;SDS011;28316;49.504;8.526;2023-04-16T06:23:27;12.13;;;4.13;;
42700;SDS011;28316;49.504;8.526;2023-04-16T06:25:52;8.30;;;3.80;;
42700;SDS011;28316;49.504;8.526;2023-04-16T06:28:20;9.23;;;3.85;;
42700;SDS011;28316;49.504;8.526;2023-04-16T06:30:46;10.07;;;3.90;;
42700;SDS011;28316;49.504;8.526;2023-04-16T06:33:11;9.88;;;4.55;;
42700;SDS011;28316;49.504;8.526;2023-04-16T06:35:37;9.95;;;4.40;;
42700;SDS011;28316;49.504;8.526;2023-04-16T06:38:03;6.90;;;3.50;;
42700;SDS011;28316;49.504;8.526;2023-04-16T06:40:29;11.30;;;4.30;;
42700;SDS011;28316;49.504;8.526;2023-04-16T06:42:54;10.57;;;4.43;;
42700;SDS011;28316;49.504;8.526;2023-04-16T06:45:20;8.85;;;4.57;;
42700;SDS011;28316;49.504;8.526;2023-04-16T06:47:46;13.27;;;5.32;;
42700;SDS011;28316;49.504;8.526;2023-04-16T06:50:12;9.38;;;4.03;;
42700;SDS011;28316;49.504;8.526;2023-04-16T06:52:38;9.10;;;3.75;;
42700;SDS011;28316;49.504;8.526;2023-04-16T06:55:03;12.50;;;4.05;;
42700;SDS011;28316;49.504;8.526;2023-04-16T06:57:32;13.95;;;4.63;;
42700;SDS011;28316;49.504;8.526;2023-04-16T06:59:57;12.20;;;4.45;;
42700;SDS011;28316;49.504;8.526;2023-04-16T07:02:23;12.65;;;5.50;;
42700;SDS011;28316;49.504;8.526;2023-04-16T07:04:49;13.35;;;5.50;;
42700;SDS011;28316;49.504;8.526;2023-04-16T07:07:16;13.10;;;5.32;;
42700;SDS011;28316;49.504;8.526;2023-04-16T07:09:42;12.10;;;4.32;;
42700;SDS011;28316;49.504;8.526;2023-04-16T07:12:08;11.57;;;4.38;;
42700;SDS011;28316;49.504;8.526;2023-04-16T07:14:35;12.60;;;4.97;;
42700;SDS011;28316;49.504;8.526;2023-04-16T07:17:01;9.48;;;5.10;;
42700;SDS011;28316;49.504;8.526;2023-04-16T07:19:26;10.45;;;5.07;;
42700;SDS011;28316;49.504;8.526;2023-04-16T07:21:56;11.93;;;5.03;;
42700;SDS011;28316;49.504;8.526;2023-04-16T07:24:23;11.25;;;5.05;;
42700;SDS011;28316;49.504;8.526;2023-04-16T07:26:49;10.65;;;4.88;;
42700;SDS011;28316;49.504;8.526;2023-04-16T07:29:15;12.05;;;5.45;;
42700;SDS011;28316;49.504;8.526;2023-04-16T07:31:40;12.60;;;4.97;;
42700;SDS011;28316;49.504;8.526;2023-04-16T07:34:06;10.18;;;5.03;;
42700;SDS011;28316;49.504;8.526;2023-04-16T07:36:32;15.90;;;5.85;;
42700;SDS011;28316;49.504;8.526;2023-04-16T07:38:58;12.43;;;4.80;;
42700;SDS011;28316;49.504;8.526;2023-04-16T07:41:24;11.18;;;4.95;;
42700;SDS011;28316;49.504;8.526;2023-04-16T07:43:50;9.70;;;4.55;;
42700;SDS011;28316;49.504;8.526;2023-04-16T07:46:16;15.52;;;6.05;;
42700;SDS011;28316;49.504;8.526;2023-04-16T07:48:42;12.98;;;5.07;;
42700;SDS011;28316;49.504;8.526;2023-04-16T07:51:07;10.82;;;3.83;;
42700;SDS011;28316;49.504;8.526;2023-04-16T07:53:33;9.80;;;4.72;;
42700;SDS011;28316;49.504;8.526;2023-04-16T07:55:59;11.63;;;4.85;;
42700;SDS011;28316;49.504;8.526;2023-04-16T07:58:25;11.02;;;4.25;;
42700;SDS011;28316;49.504;8.526;2023-04-16T08:00:51;11.38;;;5.22;;
42700;SDS011;28316;49.504;8.526;2023-04-16T08:03:17;10.57;;;3.70;;
42700;SDS011;28316;49.504;8.526;2023-04-16T08:05:43;7.00;;;3.72;;
42700;SDS011;28316;49.504;8.526;2023-04-16T08:08:09;10.27;;;4.13;;
42700;SDS011;28316;49.504;8.526;2023-04-16T08:10:35;11.10;;;4.40;;
42700;SDS011;28316;49.504;8.526;2023-04-16T08:13:00;10.77;;;4.22;;
42700;SDS011;28316;49.504;8.526;2023-04-16T08:15:26;13.98;;;5.57;;
42700;SDS011;28316;49.504;8.526;2023-04-16T08:17:52;14.18;;;6.18;;
42700;SDS011;28316;49.504;8.526;2023-04-16T08:20:18;9.70;;;4.10;;
42700;SDS011;28316;49.504;8.526;2023-04-16T08:22:44;8.35;;;4.43;;
42700;SDS011;28316;49.504;8.526;2023-04-16T08:25:10;8.02;;;4.25;;
42700;SDS011;28316;49.504;8.526;2023-04-16T08:27:36;11.02;;;4.82;;
42700;SDS011;28316;49.504;8.526;2023-04-16T08:30:02;10.35;;;4.03;;
42700;SDS011;28316;49.504;8.526;2023-04-16T08:32:29;9.85;;;4.22;;
42700;SDS011;28316;49.504;8.526;2023-04-16T08:34:55;11.27;;;4.47;;
42700;SDS011;28316;49.504;8.526;2023-04-16T08:37:21;11.40;;;4.10;;
42700;SDS011;28316;49.504;8.526;2023-04-16T08:39:47;9.52;;;4.10;;
42700;SDS011;28316;49.504;8.526;2023-04-16T08:42:24;9.50;;;3.53;;
42700;SDS011;28316;49.504;8.526;2023-04-16T08:45:38;9.27;;;4.55;;
42700;SDS011;28316;49.504;8.526;2023-04-16T08:47:49;9.95;;;4.47;;
42700;SDS011;28316;49.504;8.526;2023-04-16T08:50:17;8.23;;;3.22;;
42700;SDS011;28316;49.504;8.526;2023-04-16T08:55:19;10.23;;;3.90;;
42700;SDS011;28316;49.504;8.526;2023-04-16T09:00:18;9.15;;;3.28;;
42700;SDS011;28316;49.504;8.526;2023-04-16T09:02:45;8.40;;;5.05;;
42700;SDS011;28316;49.504;8.526;2023-04-16T09:05:13;7.40;;;4.13;;
42700;SDS011;28316;49.504;8.526;2023-04-16T09:07:49;7.75;;;3.42;;
42700;SDS011;28316;49.504;8.526;2023-04-16T09:10:18;13.00;;;4.45;;
42700;SDS011;28316;49.504;8.526;2023-04-16T09:15:18;8.70;;;3.65;;
42700;SDS011;28316;49.504;8.526;2023-04-16T09:17:45;6.90;;;3.33;;
42700;SDS011;28316;49.504;8.526;2023-04-16T09:20:11;8.65;;;4.13;;
42700;SDS011;28316;49.504;8.526;2023-04-16T09:22:37;12.02;;;4.65;;
42700;SDS011;28316;49.504;8.526;2023-04-16T09:25:06;7.25;;;3.75;;
42700;SDS011;28316;49.504;8.526;2023-04-16T09:27:33;11.45;;;4.82;;
42700;SDS011;28316;49.504;8.526;2023-04-16T09:29:59;11.27;;;3.58;;
42700;SDS011;28316;49.504;8.526;2023-04-16T09:32:25;11.23;;;4.55;;
42700;SDS011;28316;49.504;8.526;2023-04-16T09:37:23;16.60;;;4.53;;
42700;SDS011;28316;49.504;8.526;2023-04-16T09:39:57;9.45;;;4.35;;
42700;SDS011;28316;49.504;8.526;2023-04-16T09:42:35;7.85;;;3.85;;
42700;SDS011;28316;49.504;8.526;2023-04-16T09:45:01;8.57;;;3.97;;
42700;SDS011;28316;49.504;8.526;2023-04-16T09:47:43;10.07;;;4.05;;
42700;SDS011;28316;49.504;8.526;2023-04-16T09:50:17;18.02;;;5.13;;
42700;SDS011;28316;49.504;8.526;2023-04-16T09:52:46;12.90;;;5.82;;
42700;SDS011;28316;49.504;8.526;2023-04-16T09:55:26;11.55;;;3.42;;
42700;SDS011;28316;49.504;8.526;2023-04-16T09:58:01;9.90;;;4.20;;
42700;SDS011;28316;49.504;8.526;2023-04-16T10:00:27;9.55;;;3.95;;
42700;SDS011;28316;49.504;8.526;2023-04-16T10:03:04;8.23;;;4.18;;
42700;SDS011;28316;49.504;8.526;2023-04-16T10:05:31;15.82;;;5.85;;
42700;SDS011;28316;49.504;8.526;2023-04-16T10:07:58;9.07;;;3.65;;
42700;SDS011;28316;49.504;8.526;2023-04-16T10:10:26;12.00;;;5.20;;
42700;SDS011;28316;49.504;8.526;2023-04-16T10:12:53;9.30;;;3.92;;
42700;SDS011;28316;49.504;8.526;2023-04-16T10:15:20;11.27;;;4.57;;
42700;SDS011;28316;49.504;8.526;2023-04-16T10:17:46;8.73;;;4.28;;
42700;SDS011;28316;49.504;8.526;2023-04-16T10:20:13;9.95;;;3.97;;
42700;SDS011;28316;49.504;8.526;2023-04-16T10:22:40;11.60;;;5.57;;
42700;SDS011;28316;49.504;8.526;2023-04-16T10:25:06;15.63;;;5.65;;
42700;SDS011;28316;49.504;8.526;2023-04-16T10:27:33;11.13;;;5.10;;
42700;SDS011;28316;49.504;8.526;2023-04-16T10:30:00;9.10;;;4.28;;
42700;SDS011;28316;49.504;8.526;2023-04-16T10:32:27;13.55;;;5.20;;
42700;SDS011;28316;49.504;8.526;2023-04-16T10:34:55;15.07;;;5.50;;
42700;SDS011;28316;49.504;8.526;2023-04-16T10:37:28;11.48;;;5.32;;
42700;SDS011;28316;49.504;8.526;2023-04-16T10:39:55;8.85;;;5.15;;
42700;SDS011;28316;49.504;8.526;2023-04-16T10:42:23;8.18;;;3.97;;
42700;SDS011;28316;49.504;8.526;2023-04-16T10:44:50;10.85;;;5.18;;
42700;SDS011;28316;49.504;8.526;2023-04-16T10:47:15;12.45;;;5.43;;
42700;SDS011;28316;49.504;8.526;2023-04-16T10:49:41;12.70;;;6.45;;
42700;SDS011;28316;49.504;8.526;2023-04-16T10:52:14;12.50;;;4.32;;
42700;SDS011;28316;49.504;8.526;2023-04-16T10:54:43;11.55;;;5.72;;
42700;SDS011;28316;49.504;8.526;2023-04-16T10:57:16;14.27;;;5.57;;
42700;SDS011;28316;49.504;8.526;2023-04-16T10:59:44;11.55;;;4.90;;
42700;SDS011;28316;49.504;8.526;2023-04-16T11:02:13;12.35;;;5.60;;
42700;SDS011;28316;49.504;8.526;2023-04-16T11:04:42;11.38;;;5.68;;
42700;SDS011;28316;49.504;8.526;2023-04-16T11:12:39;12.13;;;5.28;;
42700;SDS011;28316;49.504;8.526;2023-04-16T11:17:39;11.63;;;5.25;;
42700;SDS011;28316;49.504;8.526;2023-04-16T11:20:13;14.15;;;6.00;;
42700;SDS011;28316;49.504;8.526;2023-04-16T11:22:49;13.30;;;5.85;;
42700;SDS011;28316;49.504;8.526;2023-04-16T11:25:20;21.50;;;6.53;;
42700;SDS011;28316;49.504;8.526;2023-04-16T11:27:54;15.13;;;6.15;;
42700;SDS011;28316;49.504;8.526;2023-04-16T11:30:29;8.50;;;3.92;;
42700;SDS011;28316;49.504;8.526;2023-04-16T11:33:09;9.98;;;4.25;;
42700;SDS011;28316;49.504;8.526;2023-04-16T11:35:39;16.38;;;6.25;;
42700;SDS011;28316;49.504;8.526;2023-04-16T11:38:05;13.98;;;5.38;;
42700;SDS011;28316;49.504;8.526;2023-04-16T11:40:31;19.52;;;5.30;;
42700;SDS011;28316;49.504;8.526;2023-04-16T11:43:01;13.30;;;5.35;;
42700;SDS011;28316;49.504;8.526;2023-04-16T11:48:21;9.60;;;4.88;;
42700;SDS011;28316;49.504;8.526;2023-04-16T11:50:53;10.57;;;5.22;;
42700;SDS011;28316;49.504;8.526;2023-04-16T11:53:23;16.50;;;6.35;;
42700;SDS011;28316;49.504;8.526;2023-04-16T11:55:49;13.70;;;5.40;;
42700;SDS011;28316;49.504;8.526;2023-04-16T11:58:14;11.43;;;5.38;;
42700;SDS011;28316;49.504;8.526;2023-04-16T12:00:40;15.85;;;5.70;;
42700;SDS011;28316;49.504;8.526;2023-04-16T12:03:06;14.13;;;5.68;;
42700;SDS011;28316;49.504;8.526;2023-04-16T12:05:33;14.43;;;5.30;;
42700;SDS011;28316;49.504;8.526;2023-04-16T12:08:03;11.80;;;6.13;;
42700;SDS011;28316;49.504;8.526;2023-04-16T12:13:08;13.23;;;6.07;;
42700;SDS011;28316;49.504;8.526;2023-04-16T12:15:57;10.93;;;5.15;;
42700;SDS011;28316;49.504;8.526;2023-04-16T12:18:23;15.57;;;6.30;;
42700;SDS011;28316;49.504;8.526;2023-04-16T12:20:51;10.95;;;5.30;;
42700;SDS011;28316;49.504;8.526;2023-04-16T12:23:29;13.00;;;5.22;;
42700;SDS011;28316;49.504;8.526;2023-04-16T12:25:58;13.98;;;5.35;;
42700;SDS011;28316;49.504;8.526;2023-04-16T12:28:34;14.07;;;5.45;;
42700;SDS011;28316;49.504;8.526;2023-04-16T12:31:02;14.13;;;5.65;;
42700;SDS011;28316;49.504;8.526;2023-04-16T12:33:29;10.80;;;4.85;;
42700;SDS011;28316;49.504;8.526;2023-04-16T12:35:55;12.15;;;4.93;;
42700;SDS011;28316;49.504;8.526;2023-04-16T12:38:21;12.95;;;5.20;;
42700;SDS011;28316;49.504;8.526;2023-04-16T12:40:47;13.07;;;4.90;;
42700;SDS011;28316;49.504;8.526;2023-04-16T12:43:13;11.25;;;5.47;;
42700;SDS011;28316;49.504;8.526;2023-04-16T12:45:39;15.73;;;6.20;;
42700;SDS011;28316;49.504;8.526;2023-04-16T12:48:05;13.27;;;5.53;;
42700;SDS011;28316;49.504;8.526;2023-04-16T12:50:31;12.38;;;4.78;;
42700;SDS011;28316;49.504;8.526;2023-04-16T12:52:57;8.27;;;4.38;;
42700;SDS011;28316;49.504;8.526;2023-04-16T12:55:24;10.20;;;4.25;;
42700;SDS011;28316;49.504;8.526;2023-04-16T12:57:50;13.23;;;5.22;;
42700;SDS011;28316;49.504;8.526;2023-04-16T13:00:19;10.77;;;5.63;;
42700;SDS011;28316;49.504;8.526;2023-04-16T13:02:45;15.00;;;5.80;;
42700;SDS011;28316;49.504;8.526;2023-04-16T13:05:11;13.23;;;4.82;;
42700;SDS011;28316;49.504;8.526;2023-04-16T13:07:40;14.05;;;5.95;;
42700;SDS011;28316;49.504;8.526;2023-04-16T13:10:06;12.23;;;4.70;;
42700;SDS011;28316;49.504;8.526;2023-04-16T13:12:33;12.32;;;5.13;;
42700;SDS011;28316;49.504;8.526;2023-04-16T13:14:59;11.77;;;5.25;;
42700;SDS011;28316;49.504;8.526;2023-04-16T13:17:25;13.10;;;5.38;;
42700;SDS011;28316;49.504;8.526;2023-04-16T13:19:51;13.80;;;5.72;;
42700;SDS011;28316;49.504;8.526;2023-04-16T13:22:17;13.98;;;5.78;;
42700;SDS011;28316;49.504;8.526;2023-04-16T13:24:42;13.07;;;5.75;;
42700;SDS011;28316;49.504;8.526;2023-04-16T13:27:08;11.02;;;5.30;;
42700;SDS011;28316;49.504;8.526;2023-04-16T13:29:35;11.85;;;4.70;;
42700;SDS011;28316;49.504;8.526;2023-04-16T13:32:01;13.02;;;6.18;;
42700;SDS011;28316;49.504;8.526;2023-04-16T13:34:27;13.73;;;5.38;;
42700;SDS011;28316;49.504;8.526;2023-04-16T13:36:53;14.48;;;5.90;;
42700;SDS011;28316;49.504;8.526;2023-04-16T13:39:19;11.68;;;6.25;;
42700;SDS011;28316;49.504;8.526;2023-04-16T13:41:45;17.02;;;5.68;;
42700;SDS011;28316;49.504;8.526;2023-04-16T13:44:13;14.15;;;6.25;;
42700;SDS011;28316;49.504;8.526;2023-04-16T13:46:39;17.15;;;7.40;;
42700;SDS011;28316;49.504;8.526;2023-04-16T13:49:07;13.40;;;6.03;;
42700;SDS011;28316;49.504;8.526;2023-04-16T13:51:33;16.35;;;6.50;;
42700;SDS011;28316;49.504;8.526;2023-04-16T13:54:00;19.25;;;7.85;;
42700;SDS011;28316;49.504;8.526;2023-04-16T13:56:25;16.27;;;6.28;;
42700;SDS011;28316;49.504;8.526;2023-04-16T13:58:51;15.25;;;6.40;;
42700;SDS011;28316;49.504;8.526;2023-04-16T14:01:17;15.13;;;6.55;;
42700;SDS011;28316;49.504;8.526;2023-04-16T14:03:43;15.23;;;6.53;;
42700;SDS011;28316;49.504;8.526;2023-04-16T14:06:09;16.90;;;5.80;;
42700;SDS011;28316;49.504;8.526;2023-04-16T14:08:35;15.98;;;6.43;;
42700;SDS011;28316;49.504;8.526;2023-04-16T14:11:02;12.68;;;6.57;;
42700;SDS011;28316;49.504;8.526;2023-04-16T14:13:29;17.55;;;7.45;;
42700;SDS011;28316;49.504;8.526;2023-04-16T14:15:55;17.50;;;6.35;;
42700;SDS011;28316;49.504;8.526;2023-04-16T14:18:21;14.52;;;6.85;;
42700;SDS011;28316;49.504;8.526;2023-04-16T14:20:47;14.75;;;6.13;;
42700;SDS011;28316;49.504;8.526;2023-04-16T14:23:12;12.98;;;5.90;;
42700;SDS011;28316;49.504;8.526;2023-04-16T14:25:38;14.95;;;6.65;;
42700;SDS011;28316;49.504;8.526;2023-04-16T14:28:04;15.43;;;6.60;;
42700;SDS011;28316;49.504;8.526;2023-04-16T14:30:30;15.57;;;7.28;;
42700;SDS011;28316;49.504;8.526;2023-04-16T14:32:56;16.23;;;7.55;;
42700;SDS011;28316;49.504;8.526;2023-04-16T14:35:22;17.63;;;6.68;;
42700;SDS011;28316;49.504;8.526;2023-04-16T14:37:48;17.73;;;7.10;;
42700;SDS011;28316;49.504;8.526;2023-04-16T14:40:14;17.42;;;6.38;;
42700;SDS011;28316;49.504;8.526;2023-04-16T14:42:40;16.48;;;7.40;;
42700;SDS011;28316;49.504;8.526;2023-04-16T14:45:06;15.77;;;7.15;;
42700;SDS011;28316;49.504;8.526;2023-04-16T14:47:33;18.00;;;7.63;;
42700;SDS011;28316;49.504;8.526;2023-04-16T14:50:01;18.08;;;7.55;;
42700;SDS011;28316;49.504;8.526;2023-04-16T14:52:27;16.58;;;7.70;;
42700;SDS011;28316;49.504;8.526;2023-04-16T14:54:55;21.63;;;7.75;;
42700;SDS011;28316;49.504;8.526;2023-04-16T14:57:21;15.30;;;6.25;;
42700;SDS011;28316;49.504;8.526;2023-04-16T14:59:47;16.25;;;8.20;;